Weather History for Sulphur Springs, TX

Change the Weather History Date:

Tuesday, January 1, 2013

  Actual Average (KGVT) Record (KGVT)
Temperature  
Mean Temperature 38 °F -  
Max Temperature 42 °F 57 °F 78 °F (2006)
Min Temperature 35 °F 40 °F 28 °F (2008)
Degree Days  
Heating Degree Days 26    
Moisture  
Dew Point 37 °F    
Average Humidity 87    
Maximum Humidity 100    
Minimum Humidity 76    
Precipitation  
Precipitation 0.00 in - - ()
Sea Level Pressure  
Sea Level Pressure 30.19 in    
Wind  
Wind Speed 8 mph (NNW)    
Max Wind Speed 17 mph    
Max Gust Speed 10 mph    
Visibility 8 miles    
Events Rain    
Averages and records for this station are not official NWS values.
T = Trace of Precipitation, MM = Missing Value Source: NWS Daily Summary

Daily Weather History Graph

Daily Weather History Graph

Search for Another Location

Airport:

Trip Planner

Search our weather history database for the weather conditions in past years. The results will help you decide how hot, cold, wet, or windy it might be!

Date:

Astronomy

Jan. 01, 2013 Rise Set
Actual Time 7:25 AM CST 5:26 PM CST
Civil Twilight 6:58 AM CST 5:54 PM CST
Nautical Twilight 6:27 AM CST 6:24 PM CST
Astronomical Twilight 5:57 AM CST 6:55 PM CST
Moon 9:43 PM CST (1/1) 9:51 AM CST (1/1)
Length of Visible Light 10h 55m
Length of Day
10h 00m
Waning Gibbous, 83% of the Moon is Illuminated
Jan 1
Waning Gibbous
Jan 4
Last Quarter
Jan 11
New
Jan 18
First Quarter
Jan 26
Full

Hourly Weather History & Observations

Time (CST) Temp. Windchill Dew Point Humidity Pressure Visibility Wind Dir Wind Speed Gust Speed Precip Events Conditions
12:15 AM 42.8 °F 37.5 °F 42.8 °F 100% 30.07 in 7.0 mi North 9.2 mph - N/A   Overcast
12:35 AM 42.8 °F 39.3 °F 41.0 °F 93% 30.07 in 7.0 mi North 5.8 mph - N/A   Overcast
1:15 AM 42.8 °F 40.1 °F 41.0 °F 93% 30.07 in 7.0 mi NNE 4.6 mph - N/A   Overcast
1:35 AM 42.8 °F 40.1 °F 41.0 °F 93% 30.07 in 7.0 mi NE 4.6 mph - N/A   Overcast
1:55 AM 42.8 °F 41.1 °F 41.0 °F 93% 30.08 in 7.0 mi ENE 3.5 mph - N/A   Overcast
2:15 AM 42.8 °F 41.1 °F 41.0 °F 93% 30.07 in 7.0 mi ENE 3.5 mph - N/A   Overcast
2:35 AM 42.8 °F - 41.0 °F 93% 30.08 in 7.0 mi Calm Calm - N/A   Overcast
2:55 AM 42.8 °F - 41.0 °F 93% 30.09 in 7.0 mi Calm Calm - N/A   Overcast
3:15 AM 42.8 °F 41.1 °F 41.0 °F 93% 30.09 in 5.0 mi NNW 3.5 mph - N/A   Overcast
3:35 AM 42.8 °F 41.1 °F 41.0 °F 93% 30.10 in 5.0 mi NW 3.5 mph - N/A   Overcast
3:55 AM 42.8 °F 41.1 °F 41.0 °F 93% 30.11 in 5.0 mi NW 3.5 mph - N/A   Overcast
4:15 AM 42.8 °F 41.1 °F 41.0 °F 93% 30.09 in 5.0 mi NNW 3.5 mph - N/A   Mostly Cloudy
4:35 AM 42.8 °F 40.1 °F 41.0 °F 93% 30.09 in 5.0 mi NW 4.6 mph - N/A   Overcast
4:55 AM 42.8 °F 38.6 °F 41.0 °F 93% 30.08 in 4.0 mi NW 6.9 mph - N/A   Overcast
5:15 AM 41.0 °F 36.4 °F 41.0 °F 100% 30.08 in 5.0 mi NNW 6.9 mph - N/A   Mostly Cloudy
5:35 AM 41.0 °F 36.4 °F 41.0 °F 100% 30.08 in 5.0 mi NNW 6.9 mph - N/A   Overcast
6:15 AM 41.0 °F 35.2 °F 39.2 °F 93% 30.11 in 7.0 mi NNW 9.2 mph - N/A   Overcast
6:35 AM 41.0 °F 34.3 °F 39.2 °F 93% 30.14 in 5.0 mi NW 11.5 mph - N/A   Overcast
7:15 AM 41.0 °F 34.7 °F 39.2 °F 93% 30.15 in 7.0 mi NNW 10.4 mph - N/A   Mostly Cloudy
7:35 AM 41.0 °F 34.7 °F 39.2 °F 93% 30.15 in 5.0 mi NNW 10.4 mph - N/A Rain Light Rain
7:55 AM 41.0 °F 35.2 °F 39.2 °F 93% 30.15 in 5.0 mi NNW 9.2 mph - N/A   Overcast
8:15 AM 41.0 °F 36.4 °F 39.2 °F 93% 30.16 in 4.0 mi North 6.9 mph - N/A   Overcast
8:35 AM 41.0 °F 36.4 °F 39.2 °F 93% 30.16 in 5.0 mi North 6.9 mph - N/A   Mostly Cloudy
8:55 AM 41.0 °F 36.4 °F 39.2 °F 93% 30.14 in 5.0 mi NNE 6.9 mph - N/A   Mostly Cloudy
9:15 AM 41.0 °F 37.1 °F 39.2 °F 93% 30.18 in 5.0 mi NNW 5.8 mph - N/A   Scattered Clouds
9:35 AM 42.8 °F 37.5 °F 39.2 °F 87% 30.19 in 5.0 mi NNW 9.2 mph - N/A   Mostly Cloudy
9:55 AM 42.8 °F 38.6 °F 39.2 °F 87% 30.19 in 5.0 mi NNW 6.9 mph 10.4 mph N/A   Overcast
10:15 AM 42.8 °F 36.2 °F 39.2 °F 87% 30.21 in 5.0 mi NNW 12.7 mph - N/A   Overcast
10:35 AM 42.8 °F 36.2 °F 39.2 °F 87% 30.21 in 5.0 mi NNW 12.7 mph - N/A   Overcast
10:55 AM 42.8 °F 36.2 °F 37.4 °F 81% 30.22 in 7.0 mi NNW 12.7 mph - N/A   Overcast
11:15 AM 42.8 °F 35.8 °F 39.2 °F 87% 30.23 in 7.0 mi NNW 13.8 mph - N/A   Overcast
11:35 AM 42.8 °F 37.0 °F 39.2 °F 87% 30.23 in 7.0 mi NNW 10.4 mph - N/A   Overcast
11:55 AM 42.8 °F 36.6 °F 39.2 °F 87% 30.21 in 7.0 mi NNW 11.5 mph - N/A   Overcast
12:15 PM 42.8 °F 36.2 °F 37.4 °F 81% 30.21 in 7.0 mi NNW 12.7 mph - N/A   Overcast
12:35 PM 42.8 °F 35.8 °F 37.4 °F 81% 30.21 in 7.0 mi NNW 13.8 mph - N/A   Overcast
1:15 PM 42.8 °F 35.1 °F 37.4 °F 81% 30.18 in 10.0 mi NNW 16.1 mph - N/A   Overcast
1:35 PM 42.8 °F 35.4 °F 35.6 °F 76% 30.19 in 10.0 mi NNW 15.0 mph - N/A   Overcast
1:55 PM 42.8 °F 34.8 °F 37.4 °F 81% 30.18 in 10.0 mi NNW 17.3 mph - N/A   Overcast
2:15 PM 42.8 °F 35.8 °F 37.4 °F 81% 30.19 in 7.0 mi NW 13.8 mph - N/A   Overcast
2:35 PM 42.8 °F 36.2 °F 37.4 °F 81% 30.19 in 7.0 mi NW 12.7 mph - N/A   Overcast
3:15 PM 41.0 °F 33.5 °F 35.6 °F 81% 30.20 in 7.0 mi NNW 13.8 mph - N/A   Overcast
3:35 PM 41.0 °F 34.3 °F 35.6 °F 81% 30.21 in 7.0 mi NNW 11.5 mph - N/A   Overcast
3:55 PM 41.0 °F 33.9 °F 35.6 °F 81% 30.21 in 10.0 mi NNW 12.7 mph - N/A   Overcast
4:15 PM 41.0 °F 33.5 °F 35.6 °F 81% 30.22 in 10.0 mi NNW 13.8 mph - N/A   Overcast
4:35 PM 41.0 °F 34.3 °F 35.6 °F 81% 30.23 in 10.0 mi NNW 11.5 mph - N/A   Overcast
4:55 PM 41.0 °F 34.3 °F 35.6 °F 81% 30.24 in 10.0 mi NNW 11.5 mph - N/A   Overcast
5:15 PM 41.0 °F 35.2 °F 35.6 °F 81% 30.24 in 10.0 mi North 9.2 mph - N/A   Mostly Cloudy
5:35 PM 41.0 °F 34.3 °F 33.8 °F 76% 30.24 in 10.0 mi North 11.5 mph - N/A   Mostly Cloudy
5:55 PM 41.0 °F 34.7 °F 33.8 °F 76% 30.25 in 10.0 mi NNW 10.4 mph - N/A   Overcast
6:15 PM 41.0 °F 35.2 °F 33.8 °F 76% 30.26 in 10.0 mi North 9.2 mph - N/A   Overcast
6:35 PM 41.0 °F 34.7 °F 33.8 °F 76% 30.27 in 10.0 mi North 10.4 mph - N/A   Overcast
6:55 PM 41.0 °F 35.2 °F 33.8 °F 76% 30.26 in 10.0 mi North 9.2 mph - N/A   Overcast
7:15 PM 39.2 °F 32.0 °F 33.8 °F 81% 30.27 in 10.0 mi North 11.5 mph - N/A   Overcast
7:35 PM 39.2 °F 32.5 °F 33.8 °F 81% 30.27 in 10.0 mi North 10.4 mph - N/A   Overcast
7:55 PM 39.2 °F 34.2 °F 33.8 °F 81% 30.27 in 10.0 mi North 6.9 mph - N/A   Overcast
8:15 PM 39.2 °F 34.2 °F 33.8 °F 81% 30.27 in 10.0 mi North 6.9 mph - N/A   Overcast
8:35 PM 37.4 °F 28.9 °F 32.0 °F 81% 30.26 in 10.0 mi North 13.8 mph - N/A   Mostly Cloudy
8:55 PM 37.4 °F 30.3 °F 32.0 °F 81% 30.27 in 10.0 mi North 10.4 mph - N/A   Scattered Clouds
9:15 PM 37.4 °F 30.8 °F 32.0 °F 81% 30.27 in 7.0 mi North 9.2 mph - N/A   Scattered Clouds
9:35 PM 35.6 °F 29.2 °F 32.0 °F 87% 30.27 in 7.0 mi NNW 8.1 mph - N/A   Mostly Cloudy
9:55 PM 37.4 °F 29.8 °F 32.0 °F 81% 30.27 in 10.0 mi North 11.5 mph - N/A   Overcast
10:15 PM 37.4 °F 30.3 °F 32.0 °F 81% 30.28 in 10.0 mi NNW 10.4 mph - N/A   Overcast
10:35 PM 35.6 °F 28.0 °F 32.0 °F 87% 30.29 in 10.0 mi North 10.4 mph - N/A   Overcast
10:55 PM 35.6 °F 27.5 °F 32.0 °F 87% 30.29 in 10.0 mi NW 11.5 mph - N/A   Overcast
11:15 PM 35.6 °F 28.0 °F 32.0 °F 87% 30.29 in 10.0 mi NW 10.4 mph - N/A   Overcast
11:35 PM 35.6 °F 28.6 °F 32.0 °F 87% 30.29 in 10.0 mi NW 9.2 mph - N/A   Overcast
11:55 PM 35.6 °F 28.0 °F 32.0 °F 87% 30.29 in 10.0 mi NW 10.4 mph - N/A   Overcast